createdAt,value
2018-09-29T14:20:01.193Z,1009.73
2018-09-29T14:21:08.418Z,1009.64
2018-09-29T14:23:00.005Z,1009.77
2018-09-29T14:23:54.235Z,1009.72
2018-09-29T14:25:00.330Z,1009.69
2018-09-29T14:25:56.452Z,1009.68
2018-09-29T14:26:53.235Z,1009.63
2018-09-29T14:27:51.889Z,1009.63
2018-09-29T14:28:53.487Z,1009.65
2018-09-29T14:29:56.634Z,1009.57
2018-09-29T14:30:56.840Z,1009.63
2018-09-29T14:31:58.808Z,1009.65
2018-09-29T14:32:56.879Z,1009.62
2018-09-29T14:33:55.282Z,1009.59
2018-09-29T14:34:55.288Z,1009.49
2018-09-29T14:35:53.944Z,1009.52
2018-09-29T14:36:54.560Z,1009.58
2018-09-29T14:37:51.875Z,1009.55
2018-09-29T14:40:43.693Z,1009.52
2018-09-29T14:41:42.062Z,1009.53
2018-09-29T14:42:45.942Z,1009.45
2018-09-29T14:44:53.590Z,1009.45
2018-09-29T14:46:52.562Z,1009.46
2018-09-29T14:48:04.230Z,1009.49
2018-09-29T14:49:04.560Z,1009.4
2018-09-29T14:50:02.651Z,1009.38
2018-09-29T14:51:07.760Z,1009.38
2018-09-29T14:52:06.691Z,1009.41
2018-09-29T14:54:12.155Z,1009.46
2018-09-29T14:55:12.482Z,1009.46
2018-09-29T14:56:08.095Z,1009.35
2018-09-29T14:57:10.564Z,1009.35
2018-09-29T14:59:12.264Z,1009.4
2018-09-29T15:00:15.267Z,1009.35
2018-09-29T15:01:22.871Z,1009.23
2018-09-29T15:02:17.707Z,1009.31
2018-09-29T15:03:26.234Z,1009.25
2018-09-29T15:04:30.310Z,1009.33
2018-09-29T15:05:31.065Z,1009.29
2018-09-29T15:06:34.250Z,1009.23
2018-09-29T15:07:35.248Z,1009.24
2018-09-29T15:08:35.973Z,1009.14
2018-09-29T15:09:34.225Z,1009.01
2018-09-29T15:10:36.200Z,1009.18
2018-09-29T15:13:12.365Z,1009.18
2018-09-29T15:14:12.346Z,1009.14
2018-09-29T15:15:17.432Z,1009.14
2018-09-29T16:34:10.709Z,1008.33
2018-09-29T16:35:13.575Z,1008.32
2018-09-29T16:36:09.563Z,1008.34
2018-09-29T16:37:08.545Z,1008.31
2018-09-29T16:38:07.854Z,1008.33
2018-09-29T16:39:12.199Z,1008.33
2018-09-29T16:40:16.031Z,1008.36
2018-09-29T16:41:16.535Z,1008.31
2018-09-29T16:42:16.577Z,1008.22
2018-09-29T16:43:15.909Z,1008.34
2018-09-29T16:44:17.736Z,1008.21
2018-09-29T16:45:16.931Z,1008.3
2018-09-29T16:46:17.047Z,1008.35
2018-09-29T16:47:18.294Z,1008.3
2018-09-29T16:48:19.188Z,1008.27
2018-09-29T16:49:21.868Z,1008.31
2018-09-29T16:50:21.742Z,1008.33
2018-09-29T16:51:32.254Z,1008.28
2018-09-29T16:52:33.297Z,1008.28
2018-09-29T16:53:33.344Z,1008.34
2018-09-29T16:54:32.542Z,1008.27
2018-09-29T16:55:31.451Z,1008.21
2018-09-29T16:56:35.303Z,1008.24
2018-09-29T16:57:40.187Z,1008.21
2018-09-29T16:58:40.879Z,1008.29
2018-09-29T16:59:43.444Z,1008.21
2018-09-29T17:00:45.863Z,1008.23
2018-09-29T17:01:47.933Z,1008.23
2018-09-29T17:02:46.948Z,1008.24
2018-09-29T17:03:46.629Z,1008.31
2018-09-29T17:04:48.145Z,1008.3
2018-09-29T17:05:49.467Z,1008.26
2018-09-29T17:06:48.694Z,1008.3
2018-09-29T17:07:48.186Z,1008.43
2018-09-29T17:08:50.832Z,1008.29
2018-09-29T17:09:59.314Z,1008.26
2018-09-29T17:10:56.237Z,1008.26
2018-09-29T17:12:03.148Z,1008.22
2018-09-29T17:13:04.178Z,1008.14
2018-09-29T17:14:03.999Z,1008.22
2018-09-29T17:15:04.303Z,1008.19
2018-09-29T17:16:03.704Z,1008.14
2018-09-29T17:17:05.814Z,1008.1
2018-09-29T17:18:03.712Z,1008.18
2018-09-29T17:19:04.706Z,1008.08
2018-09-29T17:20:04.427Z,1008.23
2018-09-29T17:21:04.111Z,1008.1
2018-09-29T17:22:05.102Z,1008.16
2018-09-29T17:23:11.395Z,1008.16
2018-09-29T17:24:13.467Z,1008.11
2018-09-29T17:25:12.802Z,1008.16
2018-09-29T17:26:21.334Z,1008.11
2018-09-29T17:27:18.002Z,1008.05
2018-09-29T17:28:16.938Z,1008.11
2018-09-29T17:29:16.072Z,1008.14
2018-09-29T17:30:16.558Z,1008.2
2018-09-29T17:31:17.333Z,1008.11
2018-09-29T17:32:19.608Z,1008.05
2018-09-29T17:33:25.364Z,1008.13
2018-09-29T21:50:54.495Z,1006.6
2018-09-29T21:51:43.132Z,1006.57
2018-09-29T21:52:42.200Z,1006.5
2018-09-29T21:53:40.236Z,1006.55
2018-09-29T21:54:38.138Z,1006.61
2018-09-29T21:55:37.017Z,1006.56
2018-09-29T21:56:35.095Z,1006.55
2018-09-29T21:57:35.651Z,1006.57
2018-09-29T21:58:30.101Z,1006.55
2018-09-29T21:59:35.118Z,1006.53
2018-09-29T22:00:33.789Z,1006.52
2018-09-29T22:01:33.048Z,1006.47
2018-09-29T22:02:40.686Z,1006.48
2018-09-29T22:03:44.799Z,1006.38
2018-09-29T22:04:42.037Z,1006.45
2018-09-29T22:05:39.689Z,1006.41
2018-09-29T22:06:40.503Z,1006.35
2018-09-29T22:07:40.696Z,1006.32
2018-09-29T22:08:38.036Z,1006.32
2018-09-29T22:09:38.311Z,1006.48
2018-09-29T22:10:47.431Z,1006.33
2018-09-29T22:11:46.989Z,1006.42
2018-09-29T22:12:48.981Z,1006.32
2018-09-29T22:13:45.955Z,1006.37
2018-09-29T22:14:44.915Z,1006.36
2018-09-29T22:15:43.134Z,1006.39
2018-09-29T22:16:44.241Z,1006.29
2018-09-29T22:17:43.391Z,1006.3
2018-09-29T22:18:40.139Z,1006.24
2018-09-29T22:19:39.935Z,1006.31
2018-09-29T22:20:44.208Z,1006.24
2018-09-29T22:21:44.176Z,1006.28
2018-09-29T22:22:43.035Z,1006.3
2018-09-29T22:23:44.381Z,1006.28
2018-09-29T22:24:41.777Z,1006.26
2018-09-29T22:25:47.288Z,1006.24
2018-09-29T22:26:47.590Z,1006.26
2018-09-29T22:27:47.691Z,1006.18
2018-09-29T22:28:49.772Z,1006.27
2018-09-29T22:29:50.253Z,1006.31
2018-09-29T22:30:48.030Z,1006.2
2018-09-29T22:31:49.631Z,1006.17
2018-09-29T22:32:48.383Z,1006.2
2018-09-29T22:33:48.338Z,1006.17
2018-09-29T22:34:46.914Z,1006.12
2018-09-29T22:35:44.627Z,1005.99
2018-09-29T22:36:41.298Z,1006.06
2018-09-29T22:37:38.960Z,1006.08
2018-09-29T22:38:38.321Z,1005.98
2018-09-29T22:39:36.939Z,1005.99
2018-09-29T22:40:38.513Z,1005.96
2018-09-29T22:41:35.504Z,1005.98
2018-09-29T22:42:32.396Z,1005.92
2018-09-29T22:43:30.522Z,1005.93
2018-09-29T22:44:27.524Z,1005.99
2018-09-29T22:45:37.116Z,1005.96
2018-09-29T22:46:36.556Z,1006.01
2018-09-29T22:47:35.171Z,1005.96
2018-09-29T22:50:35.492Z,1005.98
2018-09-29T22:51:22.812Z,1005.91
2018-09-29T22:52:19.389Z,1005.98
2018-09-29T22:53:23.158Z,1005.95
2018-09-29T22:54:20.543Z,1005.94
2018-09-29T22:55:18.639Z,1005.95
2018-09-29T22:56:18.125Z,1005.95
2018-09-29T22:57:18.848Z,1005.93
2018-09-29T22:58:16.167Z,1005.96
2018-09-29T22:59:13.696Z,1005.92
2018-09-29T23:00:16.052Z,1005.9
2018-09-29T23:01:23.797Z,1005.86
2018-09-29T23:02:20.789Z,1005.93
2018-09-29T23:03:18.592Z,1005.87
2018-09-29T23:04:16.815Z,1005.96
2018-09-29T23:05:16.997Z,1005.9
2018-09-29T23:06:16.152Z,1005.87
2018-09-29T23:07:13.438Z,1005.93
2018-09-29T23:08:09.694Z,1005.93
2018-09-29T23:09:08.987Z,1005.96
2018-09-29T23:10:06.530Z,1005.92
2018-09-29T23:11:08.587Z,1005.92
2018-09-29T23:12:07.838Z,1005.96
2018-09-29T23:13:04.046Z,1005.98
2018-09-29T23:14:00.260Z,1005.89
2018-09-29T23:14:59.446Z,1005.87
2018-09-29T23:15:56.259Z,1005.95
2018-09-29T23:16:54.119Z,1005.9
2018-09-29T23:17:53.482Z,1005.95
2018-09-29T23:18:59.535Z,1005.95
2018-09-29T23:19:55.920Z,1005.89
2018-09-29T23:20:57.537Z,1005.9
2018-09-29T23:21:54.710Z,1005.96
2018-09-29T23:22:52.863Z,1005.92
2018-09-29T23:23:50.561Z,1005.81
2018-09-29T23:24:48.266Z,1005.92
2018-09-29T23:25:45.724Z,1006.02
2018-09-29T23:26:43.237Z,1005.9
2018-09-29T23:27:42.122Z,1006.08
2018-09-29T23:28:44.409Z,1005.99
2018-09-29T23:29:42.977Z,1005.99
2018-09-29T23:30:42.381Z,1005.98
2018-09-29T23:31:38.695Z,1005.99
2018-09-29T23:32:40.946Z,1005.99
2018-09-29T23:33:39.716Z,1005.92
2018-09-29T23:34:38.330Z,1005.99
2018-09-29T23:35:36.610Z,1005.96
2018-09-29T23:36:34.044Z,1005.99
2018-09-29T23:37:31.444Z,1005.92
2018-09-29T23:38:29.007Z,1005.87
2018-09-29T23:39:29.272Z,1005.87
2018-09-29T23:40:25.961Z,1005.81
2018-09-29T23:41:23.571Z,1005.86
2018-09-29T23:42:20.796Z,1005.75
2018-09-29T23:43:18.894Z,1005.78
2018-09-29T23:44:25.282Z,1005.76
2018-09-29T23:45:22.350Z,1005.75
2018-09-29T23:46:26.009Z,1005.79
2018-09-29T23:49:10.125Z,1005.88
2018-09-29T23:50:04.149Z,1005.77
2018-09-29T23:51:08.694Z,1005.77
2018-09-29T23:52:12.773Z,1005.8
2018-09-29T23:53:15.407Z,1005.67
2018-09-29T23:54:15.376Z,1005.69
2018-09-29T23:55:12.224Z,1005.68
2018-09-29T23:56:09.777Z,1005.75
2018-09-29T23:57:09.382Z,1005.75
2018-09-29T23:58:12.178Z,1005.68
2018-09-29T23:59:09.052Z,1005.75
